createdAt,value
2022-09-16T00:00:31.544Z,96629.09
2022-09-16T00:02:58.930Z,96624.19
2022-09-16T00:05:26.290Z,96619.38
2022-09-16T00:07:54.136Z,96620.53
2022-09-16T00:10:21.396Z,96633.06
2022-09-16T00:12:49.070Z,96626.50
2022-09-16T00:15:15.984Z,96629.97
2022-09-16T00:17:42.674Z,96635.75
2022-09-16T00:20:09.536Z,96631.94
2022-09-16T00:22:36.220Z,96633.53
2022-09-16T00:25:02.942Z,96628.22
2022-09-16T00:27:29.726Z,96619.84
2022-09-16T00:29:56.386Z,96622.59
2022-09-16T00:32:25.037Z,96619.25
2022-09-16T00:34:52.260Z,96621.38
2022-09-16T00:37:19.111Z,96622.78
2022-09-16T00:39:49.118Z,96628.47
2022-09-16T00:42:17.023Z,96631.69
2022-09-16T00:45:05.150Z,96623.31
2022-09-16T00:47:34.839Z,96634.06
2022-09-16T00:50:22.683Z,96624.56
2022-09-16T00:52:50.622Z,96622.00
2022-09-16T00:55:21.862Z,96626.44
2022-09-16T00:57:49.326Z,96628.81
2022-09-16T01:00:16.478Z,96625.63
2022-09-16T01:02:44.451Z,96621.63
2022-09-16T01:05:16.700Z,96616.84
2022-09-16T01:07:49.157Z,96616.84
2022-09-16T01:10:21.766Z,96613.38
2022-09-16T01:12:57.544Z,96612.03
2022-09-16T01:15:34.583Z,96618.97
2022-09-16T01:18:10.429Z,96621.38
2022-09-16T01:20:59.818Z,96617.78
2022-09-16T01:24:01.450Z,96622.25
2022-09-16T01:26:33.771Z,96614.34
2022-09-16T01:29:09.468Z,96623.59
2022-09-16T01:31:55.437Z,96608.06
2022-09-16T01:34:44.319Z,96602.72
2022-09-16T01:37:35.073Z,96615.50
2022-09-16T01:40:28.510Z,96611.31
2022-09-16T01:43:12.749Z,96616.13
2022-09-16T01:46:05.370Z,96611.41
2022-09-16T01:48:36.961Z,96611.50
2022-09-16T01:51:13.858Z,96603.94
2022-09-16T01:53:48.869Z,96603.25
2022-09-16T01:56:22.588Z,96604.56
2022-09-16T01:58:57.841Z,96599.78
2022-09-16T02:01:49.264Z,96596.13
2022-09-16T02:04:20.376Z,96600.56
2022-09-16T02:06:49.202Z,96588.41
2022-09-16T02:09:47.050Z,96588.75
2022-09-16T02:12:18.874Z,96588.19
2022-09-16T02:14:46.182Z,96586.97
2022-09-16T02:17:18.874Z,96599.16
2022-09-16T02:19:55.590Z,96599.66
2022-09-16T02:22:28.306Z,96594.25
2022-09-16T02:24:55.133Z,96594.53
2022-09-16T02:27:23.140Z,96591.22
2022-09-16T02:30:05.515Z,96595.06
2022-09-16T02:32:34.406Z,96593.28
2022-09-16T02:35:02.440Z,96584.31
2022-09-16T02:37:43.129Z,96581.19
2022-09-16T02:40:20.534Z,96581.38
2022-09-16T02:42:47.387Z,96589.66
2022-09-16T02:45:14.160Z,96594.00
2022-09-16T02:48:13.698Z,96590.38
2022-09-16T02:50:48.150Z,96594.34
2022-09-16T02:53:46.616Z,96587.88
2022-09-16T02:56:30.545Z,96587.59
2022-09-16T02:58:57.575Z,96587.13
2022-09-16T03:01:25.199Z,96581.63
2022-09-16T03:03:55.602Z,96578.88
2022-09-16T03:06:26.308Z,96586.50
2022-09-16T03:08:55.720Z,96589.38
2022-09-16T03:11:40.662Z,96581.84
2022-09-16T03:14:32.641Z,96590.88
2022-09-16T03:16:59.835Z,96591.59
2022-09-16T03:20:10.529Z,96581.28
2022-09-16T03:22:37.381Z,96587.03
2022-09-16T03:25:24.417Z,96583.41
2022-09-16T03:27:55.748Z,96579.88
2022-09-16T03:30:22.473Z,96586.00
2022-09-16T03:32:50.038Z,96579.94
2022-09-16T03:35:33.237Z,96575.13
2022-09-16T03:38:01.319Z,96579.41
2022-09-16T03:40:29.854Z,96572.31
2022-09-16T03:42:57.890Z,96577.28
2022-09-16T03:45:24.928Z,96575.31
2022-09-16T03:47:52.845Z,96571.94
2022-09-16T03:50:20.692Z,96567.91
2022-09-16T03:52:47.590Z,96572.78
2022-09-16T03:55:14.395Z,96568.81
2022-09-16T03:57:41.490Z,96566.03
2022-09-16T04:00:17.648Z,96564.44
2022-09-16T04:02:45.211Z,96561.06
2022-09-16T04:05:11.919Z,96563.81
2022-09-16T04:07:38.676Z,96558.41
2022-09-16T04:10:06.871Z,96565.41
2022-09-16T04:12:33.949Z,96554.31
2022-09-16T04:15:01.109Z,96552.91
2022-09-16T04:17:27.994Z,96545.41
2022-09-16T04:19:54.622Z,96540.78
2022-09-16T04:22:21.310Z,96544.22
2022-09-16T04:24:51.395Z,96540.13
2022-09-16T04:27:18.166Z,96540.13
2022-09-16T04:29:44.828Z,96547.53
2022-09-16T04:32:11.613Z,96539.34
2022-09-16T04:34:38.295Z,96542.81
2022-09-16T04:37:04.990Z,96551.72
2022-09-16T04:39:31.930Z,96547.69
2022-09-16T04:41:59.996Z,96549.91
2022-09-16T04:44:27.164Z,96549.38
2022-09-16T04:46:54.125Z,96548.09
2022-09-16T04:49:20.841Z,96542.59
2022-09-16T04:51:47.700Z,96542.53
2022-09-16T04:54:14.461Z,96550.88
2022-09-16T04:56:41.199Z,96547.16
2022-09-16T04:59:07.853Z,96553.03
2022-09-16T05:01:37.735Z,96571.22
2022-09-16T05:04:06.482Z,96570.91
2022-09-16T05:06:35.585Z,96573.03
2022-09-16T05:09:02.942Z,96577.66
2022-09-16T05:11:32.238Z,96575.78
2022-09-16T05:14:00.367Z,96577.13
2022-09-16T05:16:27.878Z,96583.97
2022-09-16T05:18:57.142Z,96583.00
2022-09-16T05:21:26.048Z,96591.09
2022-09-16T05:23:53.233Z,96585.31
2022-09-16T05:26:22.859Z,96587.06
2022-09-16T05:28:53.013Z,96581.03
2022-09-16T05:31:22.581Z,96576.25
2022-09-16T05:34:03.812Z,96585.91
2022-09-16T05:36:34.856Z,96586.53
2022-09-16T05:39:22.083Z,96589.81
2022-09-16T05:41:49.643Z,96583.91
2022-09-16T05:44:16.327Z,96592.94
2022-09-16T05:46:43.836Z,96599.69
2022-09-16T05:49:10.882Z,96597.91
2022-09-16T05:51:39.312Z,96595.78
2022-09-16T05:54:06.339Z,96602.88
2022-09-16T05:56:33.226Z,96605.56
2022-09-16T05:59:00.861Z,96601.84
2022-09-16T06:01:33.462Z,96610.19
2022-09-16T06:04:06.488Z,96602.00
2022-09-16T06:06:34.480Z,96607.78
2022-09-16T06:09:08.848Z,96613.91
2022-09-16T06:11:38.202Z,96616.13
2022-09-16T06:14:06.124Z,96623.69
2022-09-16T06:16:33.202Z,96625.81
2022-09-16T06:19:01.251Z,96632.84
2022-09-16T06:21:28.654Z,96628.47
2022-09-16T06:23:56.343Z,96619.31
2022-09-16T06:26:25.380Z,96619.03
2022-09-16T06:28:53.823Z,96622.84
2022-09-16T06:31:26.464Z,96635.38
2022-09-16T06:33:54.160Z,96632.88
2022-09-16T06:36:25.923Z,96637.84
2022-09-16T06:38:52.716Z,96641.56
2022-09-16T06:41:20.673Z,96639.56
2022-09-16T06:43:48.451Z,96641.72
2022-09-16T06:46:17.818Z,96637.53
2022-09-16T06:48:52.467Z,96631.47
2022-09-16T06:51:25.833Z,96635.66
2022-09-16T06:53:54.057Z,96636.28
2022-09-16T06:56:29.481Z,96640.56
2022-09-16T06:58:57.538Z,96634.56
2022-09-16T07:01:26.832Z,96636.94
2022-09-16T07:03:54.332Z,96636.47
2022-09-16T07:06:37.276Z,96631.81
2022-09-16T07:09:11.474Z,96637.59
2022-09-16T07:11:38.169Z,96637.09
2022-09-16T07:14:05.093Z,96643.63
2022-09-16T07:16:31.818Z,96646.38
2022-09-16T07:19:01.058Z,96640.34
2022-09-16T07:21:30.321Z,96647.09
2022-09-16T07:24:02.538Z,96642.03
2022-09-16T07:26:31.184Z,96641.97
2022-09-16T07:29:00.679Z,96647.38
2022-09-16T07:31:29.306Z,96644.72
2022-09-16T07:34:02.858Z,96651.72
2022-09-16T07:36:36.649Z,96642.22
2022-09-16T07:39:04.381Z,96649.31
2022-09-16T07:41:34.090Z,96648.13
2022-09-16T07:44:01.323Z,96658.25
2022-09-16T07:46:30.005Z,96662.41
2022-09-16T07:48:58.362Z,96662.00
2022-09-16T07:51:25.910Z,96664.53
2022-09-16T07:53:59.311Z,96660.28
2022-09-16T07:56:29.061Z,96653.72
2022-09-16T07:58:56.894Z,96666.34
2022-09-16T08:01:24.039Z,96661.00
2022-09-16T08:03:50.834Z,96663.94
2022-09-16T08:06:23.269Z,96668.59
2022-09-16T08:08:54.849Z,96674.19
2022-09-16T08:11:22.201Z,96667.56
2022-09-16T08:13:49.452Z,96667.44
2022-09-16T08:16:21.392Z,96673.38
2022-09-16T08:18:50.098Z,96671.56
2022-09-16T08:21:20.433Z,96674.16
2022-09-16T08:23:47.121Z,96678.97
2022-09-16T08:26:14.663Z,96684.06
2022-09-16T08:28:50.908Z,96686.69
2022-09-16T08:31:24.621Z,96698.16
2022-09-16T08:33:51.374Z,96691.63
2022-09-16T08:36:21.275Z,96692.03
2022-09-16T08:38:51.022Z,96699.63
2022-09-16T08:41:45.530Z,96692.25
2022-09-16T08:44:29.141Z,96700.47
2022-09-16T08:47:02.121Z,96704.31
2022-09-16T08:49:44.008Z,96705.41
2022-09-16T08:52:34.582Z,96710.97
2022-09-16T08:55:15.072Z,96706.81
2022-09-16T08:57:43.478Z,96715.22
2022-09-16T09:00:16.533Z,96708.16
2022-09-16T09:03:12.381Z,96712.47
2022-09-16T09:05:57.074Z,96715.03
2022-09-16T09:08:45.152Z,96715.19
2022-09-16T09:11:27.117Z,96723.69
2022-09-16T09:14:08.695Z,96724.53
2022-09-16T09:16:48.174Z,96715.81
2022-09-16T09:19:20.717Z,96715.16
2022-09-16T09:22:13.811Z,96709.91
2022-09-16T09:25:08.489Z,96706.16
2022-09-16T09:27:40.763Z,96703.53
2022-09-16T09:30:22.244Z,96703.97
2022-09-16T09:33:27.764Z,96704.66
2022-09-16T09:36:06.870Z,96707.16
2022-09-16T09:38:42.657Z,96708.81
2022-09-16T09:51:44.788Z,96702.22
2022-09-16T09:54:25.978Z,96703.75
2022-09-16T09:57:21.086Z,96715.88
2022-09-16T10:00:04.917Z,96714.19
2022-09-16T10:02:41.337Z,96706.41
2022-09-16T10:05:23.322Z,96711.00
2022-09-16T10:07:51.809Z,96708.66
2022-09-16T10:10:26.106Z,96720.03
2022-09-16T10:12:53.986Z,96718.16
2022-09-16T10:15:30.199Z,96712.28
2022-09-16T10:17:59.550Z,96712.28
2022-09-16T10:20:34.283Z,96722.94
2022-09-16T10:23:04.550Z,96731.16
2022-09-16T10:25:32.818Z,96718.19
2022-09-16T10:28:19.961Z,96722.81
2022-09-16T10:30:49.699Z,96730.91
2022-09-16T10:33:24.164Z,96731.13
2022-09-16T10:35:58.231Z,96730.69
2022-09-16T10:38:27.677Z,96730.56
2022-09-16T10:41:20.010Z,96726.88
2022-09-16T10:43:53.661Z,96730.06
2022-09-16T10:46:21.084Z,96731.50
2022-09-16T10:48:49.391Z,96726.84
2022-09-16T10:51:24.258Z,96728.13
2022-09-16T10:54:00.509Z,96726.69
2022-09-16T10:56:33.766Z,96742.13
2022-09-16T10:59:10.214Z,96743.56
2022-09-16T11:01:45.227Z,96741.97
2022-09-16T11:04:48.921Z,96745.59
2022-09-16T11:07:38.727Z,96750.56
2022-09-16T11:10:23.381Z,96750.97
2022-09-16T11:13:15.001Z,96756.56
2022-09-16T11:15:47.390Z,96757.75
2022-09-16T11:18:38.829Z,96750.94
2022-09-16T11:21:15.331Z,96762.41
2022-09-16T11:24:13.642Z,96758.19
2022-09-16T11:26:46.026Z,96757.81
2022-09-16T11:29:18.910Z,96757.16
2022-09-16T11:32:00.032Z,96754.09
2022-09-16T11:34:51.582Z,96762.13
2022-09-16T11:37:24.091Z,96757.59
2022-09-16T11:39:57.478Z,96755.66
2022-09-16T11:42:46.733Z,96760.75
2022-09-16T11:45:26.430Z,96768.69
2022-09-16T11:48:12.126Z,96766.78
2022-09-16T11:50:38.915Z,96772.09
2022-09-16T11:53:39.039Z,96771.91
2022-09-16T11:56:42.830Z,96769.84
2022-09-16T11:59:19.296Z,96766.03
2022-09-16T12:01:50.382Z,96763.81
2022-09-16T12:04:20.160Z,96759.41
2022-09-16T12:06:55.400Z,96764.31
2022-09-16T12:09:32.048Z,96762.03
2022-09-16T12:12:09.418Z,96766.09
2022-09-16T12:14:40.774Z,96762.81
2022-09-16T12:17:27.862Z,96761.19
2022-09-16T12:19:59.398Z,96751.53
2022-09-16T12:22:30.652Z,96758.13
2022-09-16T12:25:00.309Z,96752.13
2022-09-16T12:27:34.150Z,96753.25
2022-09-16T12:30:13.128Z,96757.09
2022-09-16T12:32:55.480Z,96756.97
2022-09-16T12:35:34.647Z,96753.59
2022-09-16T12:38:02.085Z,96759.47
2022-09-16T12:41:09.146Z,96763.22
2022-09-16T12:44:02.252Z,96760.75
2022-09-16T12:46:42.431Z,96749.31
2022-09-16T12:49:37.438Z,96757.13
2022-09-16T12:52:13.558Z,96754.44
2022-09-16T12:55:06.613Z,96748.72
2022-09-16T12:57:41.504Z,96749.25
2022-09-16T13:00:27.269Z,96745.81
2022-09-16T13:02:57.968Z,96753.38
2022-09-16T13:05:34.348Z,96747.66
2022-09-16T13:08:05.419Z,96741.97
2022-09-16T13:10:54.668Z,96740.44
2022-09-16T13:13:30.194Z,96744.69
2022-09-16T13:15:58.211Z,96732.75
2022-09-16T13:18:38.336Z,96732.00
2022-09-16T13:21:24.022Z,96729.69
2022-09-16T13:24:32.706Z,96731.19
2022-09-16T13:26:59.675Z,96731.91
2022-09-16T13:29:46.264Z,96726.91
2022-09-16T13:32:38.639Z,96736.56
2022-09-16T13:35:18.923Z,96729.56
2022-09-16T13:37:49.966Z,96724.31
2022-09-16T13:40:29.548Z,96723.88
2022-09-16T13:43:09.121Z,96722.13
2022-09-16T13:45:39.762Z,96719.56
2022-09-16T13:48:20.397Z,96711.19
2022-09-16T13:50:51.839Z,96727.38
2022-09-16T13:53:31.946Z,96720.53
2022-09-16T13:56:29.585Z,96721.88
2022-09-16T13:59:31.539Z,96731.75
2022-09-16T14:02:08.289Z,96718.88
2022-09-16T14:05:10.037Z,96716.38
2022-09-16T14:07:55.791Z,96717.34
2022-09-16T14:10:47.718Z,96720.00
2022-09-16T14:13:17.605Z,96713.19
2022-09-16T14:15:48.380Z,96711.00
2022-09-16T14:18:23.126Z,96707.47
2022-09-16T14:20:55.323Z,96706.38
2022-09-16T14:23:24.295Z,96718.41
2022-09-16T14:25:55.314Z,96710.78
2022-09-16T14:28:27.305Z,96704.69
2022-09-16T14:31:00.800Z,96705.94
2022-09-16T14:33:30.500Z,96703.53
2022-09-16T14:35:58.052Z,96698.09
2022-09-16T14:38:51.841Z,96703.75
2022-09-16T14:41:27.074Z,96704.31
2022-09-16T14:43:55.017Z,96701.16
2022-09-16T14:46:21.683Z,96702.84
2022-09-16T14:48:48.637Z,96705.13
2022-09-16T14:51:26.261Z,96702.91
2022-09-16T14:54:13.763Z,96710.56
2022-09-16T14:56:40.994Z,96701.13
2022-09-16T14:59:10.819Z,96701.31
2022-09-16T15:01:38.044Z,96693.06
2022-09-16T15:04:14.828Z,96697.63
2022-09-16T15:06:47.283Z,96706.66
2022-09-16T15:09:32.230Z,96712.53
2022-09-16T15:11:59.939Z,96707.78
2022-09-16T15:14:26.923Z,96709.72
2022-09-16T15:16:57.370Z,96708.50
2022-09-16T15:19:27.573Z,96702.56
2022-09-16T15:21:55.447Z,96701.09
2022-09-16T15:24:28.964Z,96697.44
2022-09-16T15:26:56.292Z,96698.44
2022-09-16T15:29:22.880Z,96701.19
2022-09-16T15:31:50.776Z,96701.50
2022-09-16T15:34:23.342Z,96700.13
2022-09-16T15:36:58.894Z,96721.47
2022-09-16T15:39:29.560Z,96729.94
2022-09-16T15:42:28.759Z,96715.16
2022-09-16T15:44:58.202Z,96709.16
2022-09-16T15:47:27.395Z,96717.97
2022-09-16T15:49:59.411Z,96707.91
2022-09-16T15:52:26.447Z,96706.38
2022-09-16T15:55:00.252Z,96720.41
2022-09-16T15:57:32.387Z,96721.56
2022-09-16T16:00:12.163Z,96718.06
2022-09-16T16:03:00.662Z,96713.09
2022-09-16T16:05:32.159Z,96711.75
2022-09-16T16:08:09.764Z,96703.75
2022-09-16T16:10:40.598Z,96710.13
2022-09-16T16:13:07.643Z,96715.63
2022-09-16T16:15:35.865Z,96717.75
2022-09-16T16:18:06.408Z,96736.53
2022-09-16T16:20:34.691Z,96738.88
2022-09-16T16:23:01.941Z,96744.06
2022-09-16T16:25:29.498Z,96748.28
2022-09-16T16:27:56.343Z,96754.81
2022-09-16T16:30:23.007Z,96750.31
2022-09-16T16:32:49.830Z,96743.84
2022-09-16T16:35:16.519Z,96753.03
2022-09-16T16:37:47.384Z,96755.75
2022-09-16T16:40:15.285Z,96749.88
2022-09-16T16:42:43.844Z,96751.16
2022-09-16T16:45:13.208Z,96751.41
2022-09-16T16:47:40.168Z,96748.84
2022-09-16T16:50:07.188Z,96760.09
2022-09-16T16:52:33.896Z,96751.63
2022-09-16T16:55:00.929Z,96755.66
2022-09-16T16:57:28.110Z,96750.28
2022-09-16T16:59:54.839Z,96757.50
2022-09-16T17:02:21.658Z,96749.13
2022-09-16T17:04:48.354Z,96750.38
2022-09-16T17:07:25.575Z,96748.59
2022-09-16T17:09:53.947Z,96755.72
2022-09-16T17:12:20.778Z,96743.38
2022-09-16T17:14:50.129Z,96753.09
2022-09-16T17:17:17.193Z,96758.91
2022-09-16T17:19:43.941Z,96763.97
2022-09-16T17:22:11.102Z,96771.94
2022-09-16T17:24:37.804Z,96769.00
2022-09-16T17:27:04.657Z,96780.31
2022-09-16T17:29:31.480Z,96777.53
2022-09-16T17:32:00.682Z,96775.78
2022-09-16T17:34:27.624Z,96780.59
2022-09-16T17:36:54.648Z,96781.50
2022-09-16T17:39:22.037Z,96779.78
2022-09-16T17:41:49.762Z,96782.53
2022-09-16T17:44:17.597Z,96789.56
2022-09-16T17:46:45.057Z,96786.72
2022-09-16T17:49:17.830Z,96792.25
2022-09-16T17:51:45.636Z,96790.81
2022-09-16T17:54:12.735Z,96783.88
2022-09-16T17:56:41.090Z,96791.44
2022-09-16T17:59:07.935Z,96790.00
2022-09-16T18:01:35.245Z,96790.09
2022-09-16T18:04:02.444Z,96793.56
2022-09-16T18:06:31.524Z,96790.81
2022-09-16T18:09:03.833Z,96791.53
2022-09-16T18:11:30.983Z,96802.09
2022-09-16T18:14:00.039Z,96801.31
2022-09-16T18:16:28.223Z,96810.56
2022-09-16T18:18:56.826Z,96804.66
2022-09-16T18:21:24.555Z,96802.22
2022-09-16T18:23:56.599Z,96814.28
2022-09-16T18:26:24.309Z,96820.16
2022-09-16T18:29:09.143Z,96825.97
2022-09-16T18:31:37.191Z,96826.19
2022-09-16T18:34:04.038Z,96829.66
2022-09-16T18:36:32.689Z,96837.50
2022-09-16T18:38:59.580Z,96828.22
2022-09-16T18:41:31.102Z,96834.13
2022-09-16T18:44:00.539Z,96839.03
2022-09-16T18:46:27.990Z,96846.41
2022-09-16T18:48:55.186Z,96849.78
2022-09-16T18:51:33.343Z,96848.28
2022-09-16T18:54:02.360Z,96842.97
2022-09-16T18:56:32.059Z,96842.78
2022-09-16T18:59:23.050Z,96844.91
2022-09-16T19:01:52.039Z,96846.03
2022-09-16T19:04:20.730Z,96845.19
2022-09-16T19:06:49.926Z,96854.38
2022-09-16T19:09:18.653Z,96855.50
2022-09-16T19:11:45.969Z,96852.84
2022-09-16T19:14:14.223Z,96849.69
2022-09-16T19:16:45.157Z,96856.59
2022-09-16T19:19:13.836Z,96848.16
2022-09-16T19:21:42.089Z,96853.97
2022-09-16T19:24:14.271Z,96855.50
2022-09-16T19:26:42.187Z,96850.81
2022-09-16T19:29:10.066Z,96850.28
2022-09-16T19:31:39.286Z,96867.41
2022-09-16T19:34:06.274Z,96870.56
2022-09-16T19:36:34.571Z,96873.00
2022-09-16T19:39:01.283Z,96870.25
2022-09-16T19:41:30.949Z,96872.22
2022-09-16T19:44:02.968Z,96873.50
2022-09-16T19:46:32.706Z,96870.03
2022-09-16T19:48:59.385Z,96881.34
2022-09-16T19:51:31.515Z,96875.13
2022-09-16T19:54:03.917Z,96883.47
2022-09-16T19:56:38.194Z,96885.75
2022-09-16T19:59:09.830Z,96880.34
2022-09-16T20:01:37.725Z,96879.63
2022-09-16T20:04:08.369Z,96879.41
2022-09-16T20:06:40.759Z,96871.78
2022-09-16T20:09:11.610Z,96874.53
2022-09-16T20:11:43.704Z,96873.19
2022-09-16T20:14:16.258Z,96874.53
2022-09-16T20:16:43.959Z,96881.34
2022-09-16T20:19:14.525Z,96874.81
2022-09-16T20:21:42.371Z,96883.06
2022-09-16T20:24:14.714Z,96876.25
2022-09-16T20:26:41.558Z,96878.16
2022-09-16T20:29:08.244Z,96876.91
2022-09-16T20:31:36.700Z,96878.03
2022-09-16T20:34:04.136Z,96887.81
2022-09-16T20:36:32.358Z,96876.91
2022-09-16T20:39:00.212Z,96883.41
2022-09-16T20:41:29.558Z,96882.81
2022-09-16T20:43:56.810Z,96878.34
2022-09-16T20:46:26.134Z,96881.44
2022-09-16T20:48:57.072Z,96887.75
2022-09-16T20:51:26.001Z,96882.94
2022-09-16T20:54:04.967Z,96892.75
2022-09-16T20:56:38.080Z,96891.50
2022-09-16T20:59:09.806Z,96904.84
2022-09-16T21:01:37.961Z,96897.59
2022-09-16T21:04:11.776Z,96897.59
2022-09-16T21:06:38.842Z,96905.94
2022-09-16T21:09:08.225Z,96906.06
2022-09-16T21:11:35.687Z,96903.91
2022-09-16T21:14:09.032Z,96901.25
2022-09-16T21:16:37.668Z,96901.66
2022-09-16T21:19:09.311Z,96905.50
2022-09-16T21:21:40.925Z,96897.06
2022-09-16T21:24:08.529Z,96896.72
2022-09-16T21:26:36.929Z,96895.59
2022-09-16T21:29:05.825Z,96895.53
2022-09-16T21:31:34.064Z,96895.09
2022-09-16T21:34:03.105Z,96887.81
2022-09-16T21:36:30.679Z,96899.50
2022-09-16T21:38:57.902Z,96889.25
2022-09-16T21:41:25.274Z,96897.38
2022-09-16T21:43:55.549Z,96897.53
2022-09-16T21:46:28.356Z,96910.41
2022-09-16T21:49:03.051Z,96901.72
2022-09-16T21:51:35.142Z,96899.72
2022-09-16T21:54:06.730Z,96904.25
2022-09-16T21:56:33.973Z,96913.38
2022-09-16T21:59:00.850Z,96906.56
2022-09-16T22:01:30.364Z,96915.28
2022-09-16T22:04:02.330Z,96913.25
2022-09-16T22:06:29.767Z,96913.34
2022-09-16T22:08:59.260Z,96918.13
2022-09-16T22:11:28.390Z,96915.88
2022-09-16T22:13:56.178Z,96922.81
2022-09-16T22:16:28.809Z,96922.91
2022-09-16T22:19:04.959Z,96925.03
2022-09-16T22:21:33.091Z,96927.09
2022-09-16T22:24:00.514Z,96923.88
2022-09-16T22:26:28.315Z,96930.31
2022-09-16T22:28:55.600Z,96929.59
2022-09-16T22:31:27.865Z,96936.03
2022-09-16T22:33:56.297Z,96932.94
2022-09-16T22:36:29.851Z,96928.88
2022-09-16T22:39:04.663Z,96942.72
2022-09-16T22:41:31.704Z,96933.16
2022-09-16T22:43:58.717Z,96930.31
2022-09-16T22:46:31.849Z,96935.69
2022-09-16T22:48:59.374Z,96933.28
2022-09-16T22:51:27.227Z,96938.31
2022-09-16T22:53:54.655Z,96938.19
2022-09-16T22:56:25.065Z,96940.00
2022-09-16T22:58:53.700Z,96942.97
2022-09-16T23:01:23.177Z,96932.09
2022-09-16T23:03:53.855Z,96927.72
2022-09-16T23:06:21.537Z,96938.19
2022-09-16T23:08:48.350Z,96939.25
2022-09-16T23:11:17.487Z,96939.59
2022-09-16T23:13:45.294Z,96943.88
2022-09-16T23:16:15.930Z,96939.94
2022-09-16T23:18:44.119Z,96938.88
2022-09-16T23:21:12.899Z,96934.00
2022-09-16T23:23:41.851Z,96937.47
2022-09-16T23:26:11.897Z,96934.84
2022-09-16T23:28:38.843Z,96936.63
2022-09-16T23:31:07.925Z,96936.63
2022-09-16T23:33:34.848Z,96929.59
2022-09-16T23:36:02.025Z,96933.66
2022-09-16T23:38:29.055Z,96927.47
2022-09-16T23:40:55.775Z,96930.06
2022-09-16T23:43:24.529Z,96924.59
2022-09-16T23:45:51.610Z,96924.72
2022-09-16T23:48:18.914Z,96927.22
2022-09-16T23:50:46.688Z,96922.19
2022-09-16T23:53:14.106Z,96925.53
2022-09-16T23:55:44.257Z,96926.84
2022-09-16T23:58:11.614Z,96925.41
